createdAt,value
2018-05-15T00:01:32.254Z,85.65
2018-05-15T00:04:00.708Z,85.80
2018-05-15T00:06:29.135Z,86.59
2018-05-15T00:08:57.690Z,87.25
2018-05-15T00:11:26.152Z,87.84
2018-05-15T00:13:54.606Z,88.55
2018-05-15T00:16:23.036Z,88.85
2018-05-15T00:18:51.501Z,88.87
2018-05-15T00:21:20.683Z,89.04
2018-05-15T00:23:49.129Z,89.04
2018-05-15T00:26:17.536Z,89.06
2018-05-15T00:28:46.003Z,88.95
2018-05-15T00:31:14.434Z,89.23
2018-05-15T00:33:43.655Z,89.38
2018-05-15T00:36:12.080Z,89.75
2018-05-15T00:38:40.559Z,89.73
2018-05-15T00:41:08.986Z,89.99
2018-05-15T00:43:38.219Z,89.65
2018-05-15T00:46:06.660Z,89.92
2018-05-15T00:48:35.141Z,89.87
2018-05-15T00:51:03.559Z,89.68
2018-05-15T00:53:31.986Z,89.30
2018-05-15T00:56:00.468Z,89.29
2018-05-15T00:58:28.974Z,89.47
2018-05-15T01:00:57.453Z,89.34
2018-05-15T01:03:25.896Z,89.43
2018-05-15T01:05:54.362Z,89.64
2018-05-15T01:08:22.784Z,89.43
2018-05-15T01:10:51.260Z,89.29
2018-05-15T01:13:19.687Z,89.29
2018-05-15T01:15:49.004Z,89.35
2018-05-15T01:18:18.243Z,89.48
2018-05-15T01:20:46.704Z,89.59
2018-05-15T01:23:15.903Z,89.70
2018-05-15T01:25:45.135Z,89.49
2018-05-15T01:28:13.589Z,89.36
2018-05-15T01:30:42.812Z,89.01
2018-05-15T01:33:11.236Z,89.11
2018-05-15T01:35:39.674Z,89.15
2018-05-15T01:38:08.144Z,89.50
2018-05-15T01:40:37.334Z,89.27
2018-05-15T01:43:05.795Z,89.48
2018-05-15T01:45:34.223Z,89.54
2018-05-15T01:48:03.450Z,88.87
2018-05-15T01:50:32.406Z,89.02
2018-05-15T01:53:01.650Z,88.89
2018-05-15T01:55:30.087Z,88.84
2018-05-15T01:57:58.538Z,89.12
2018-05-15T02:00:26.970Z,88.89
2018-05-15T02:02:56.175Z,88.45
2018-05-15T02:05:25.395Z,88.25
2018-05-15T02:07:53.936Z,88.02
2018-05-15T02:10:23.269Z,88.13
2018-05-15T02:12:52.464Z,87.92
2018-05-15T02:15:21.684Z,87.39
2018-05-15T02:17:50.101Z,87.41
2018-05-15T02:20:18.575Z,86.91
2018-05-15T02:22:47.003Z,86.85
2018-05-15T02:25:15.451Z,87.04
2018-05-15T02:27:43.884Z,87.03
2018-05-15T02:30:12.364Z,87.03
2018-05-15T02:32:41.571Z,86.96
2018-05-15T02:35:10.777Z,86.59
2018-05-15T02:37:40.006Z,86.63
2018-05-15T02:40:08.439Z,86.44
2018-05-15T02:42:36.903Z,86.73
2018-05-15T02:45:05.354Z,86.51
2018-05-15T02:47:33.833Z,86.61
2018-05-15T02:50:02.364Z,86.38
2018-05-15T02:52:30.900Z,86.08
2018-05-15T02:55:00.185Z,86.25
2018-05-15T02:57:29.438Z,85.82
2018-05-15T02:59:57.880Z,86.52
2018-05-15T03:02:27.227Z,86.30
2018-05-15T03:04:55.660Z,86.23
2018-05-15T03:07:24.247Z,86.68
2018-05-15T03:09:52.767Z,86.45
2018-05-15T03:12:21.334Z,86.58
2018-05-15T03:14:50.590Z,86.18
2018-05-15T03:17:19.104Z,85.42
2018-05-15T03:19:47.570Z,85.43
2018-05-15T03:22:16.032Z,85.44
2018-05-15T03:24:44.475Z,85.06
2018-05-15T03:27:13.677Z,85.15
2018-05-15T03:29:42.895Z,85.29
2018-05-15T03:32:12.093Z,85.35
2018-05-15T03:34:41.312Z,85.04
2018-05-15T03:37:09.740Z,85.17
2018-05-15T03:39:38.185Z,85.35
2018-05-15T03:42:06.614Z,85.48
2018-05-15T03:44:35.102Z,85.43
2018-05-15T03:47:03.534Z,85.42
2018-05-15T03:49:31.964Z,85.56
2018-05-15T03:52:00.423Z,85.65
2018-05-15T03:54:28.832Z,85.63
2018-05-15T03:56:57.294Z,85.63
2018-05-15T03:59:25.724Z,85.67
2018-05-15T04:02:11.992Z,85.79
2018-05-15T04:04:58.155Z,85.49
2018-05-15T04:07:44.521Z,85.29
2018-05-15T04:10:12.939Z,85.47
2018-05-15T04:12:41.926Z,85.68
2018-05-15T04:15:10.351Z,85.74
2018-05-15T04:17:38.801Z,85.54
2018-05-15T04:20:07.331Z,85.57
2018-05-15T04:22:36.630Z,85.46
2018-05-15T04:25:05.918Z,85.90
2018-05-15T04:27:34.519Z,86.08
2018-05-15T04:30:03.083Z,86.42
2018-05-15T04:32:31.628Z,86.51
2018-05-15T04:35:00.065Z,86.57
2018-05-15T04:37:28.547Z,86.51
2018-05-15T04:39:57.031Z,86.58
2018-05-15T04:42:25.504Z,86.57
2018-05-15T04:44:53.922Z,86.74
2018-05-15T04:47:22.480Z,86.85
2018-05-15T04:49:50.900Z,86.90
2018-05-15T04:52:19.470Z,86.83
2018-05-15T04:54:47.935Z,86.58
2018-05-15T04:57:16.364Z,86.61
2018-05-15T04:59:45.591Z,86.34
2018-05-15T05:02:14.033Z,86.63
2018-05-15T05:04:42.493Z,87.02
2018-05-15T05:07:10.916Z,86.71
2018-05-15T05:09:40.192Z,87.17
2018-05-15T05:12:08.638Z,86.74
2018-05-15T05:14:37.095Z,86.53
2018-05-15T05:17:06.273Z,85.38
2018-05-15T05:19:34.730Z,85.98
2018-05-15T05:22:03.160Z,85.85
2018-05-15T05:24:31.636Z,86.01
2018-05-15T05:27:00.048Z,84.42
2018-05-15T05:29:28.534Z,84.51
2018-05-15T05:31:56.957Z,84.17
2018-05-15T05:34:25.399Z,84.59
2018-05-15T05:36:54.601Z,83.52
2018-05-15T05:39:23.779Z,84.31
2018-05-15T05:41:52.230Z,84.38
2018-05-15T05:44:20.656Z,82.87
2018-05-15T05:46:49.893Z,83.18
2018-05-15T05:49:18.316Z,83.46
2018-05-15T05:51:46.784Z,83.36
2018-05-15T05:54:15.208Z,83.98
2018-05-15T05:56:44.414Z,83.75
2018-05-15T05:59:13.601Z,84.10
2018-05-15T06:01:42.038Z,83.25
2018-05-15T06:04:10.454Z,83.25
2018-05-15T06:06:38.925Z,83.74
2018-05-15T06:09:07.362Z,82.83
2018-05-15T06:11:36.562Z,83.39
2018-05-15T06:14:05.773Z,83.47
2018-05-15T06:16:34.979Z,84.38
2018-05-15T06:19:03.439Z,84.73
2018-05-15T06:21:32.643Z,84.33
2018-05-15T06:24:01.864Z,84.52
2018-05-15T06:26:30.297Z,85.00
2018-05-15T06:28:58.739Z,85.15
2018-05-15T06:31:27.160Z,85.68
2018-05-15T06:33:55.829Z,85.22
2018-05-15T06:36:24.245Z,85.96
2018-05-15T06:38:52.706Z,85.90
2018-05-15T06:41:21.137Z,85.81
2018-05-15T06:43:50.359Z,85.82
2018-05-15T06:46:19.543Z,86.01
2018-05-15T06:48:47.952Z,84.86
2018-05-15T06:51:16.415Z,84.07
2018-05-15T06:53:45.615Z,85.14
2018-05-15T06:56:14.067Z,85.98
2018-05-15T06:58:42.501Z,85.73
2018-05-15T07:01:10.965Z,86.40
2018-05-15T07:03:39.404Z,84.79
2018-05-15T07:06:07.868Z,84.05
2018-05-15T07:08:36.307Z,84.56
2018-05-15T07:11:04.754Z,84.34
2018-05-15T07:13:33.163Z,84.69
2018-05-15T07:16:01.614Z,85.92
2018-05-15T07:18:30.032Z,84.27
2018-05-15T07:20:58.477Z,84.54
2018-05-15T07:23:26.901Z,83.99
2018-05-15T07:25:55.332Z,84.07
2018-05-15T07:28:24.675Z,83.08
2018-05-15T07:30:53.109Z,84.33
2018-05-15T07:33:21.576Z,82.32
2018-05-15T07:35:49.990Z,82.42
2018-05-15T07:38:19.215Z,82.25
2018-05-15T07:40:47.627Z,83.66
2018-05-15T07:43:16.191Z,83.37
2018-05-15T07:45:44.666Z,82.96
2018-05-15T07:48:13.193Z,84.25
2018-05-15T07:50:41.567Z,82.53
2018-05-15T07:53:10.022Z,83.40
2018-05-15T07:55:38.461Z,81.66
2018-05-15T07:58:06.922Z,80.52
2018-05-15T08:00:35.360Z,81.74
2018-05-15T08:03:03.831Z,85.36
2018-05-15T08:05:33.016Z,83.86
2018-05-15T08:08:01.461Z,82.17
2018-05-15T08:10:29.913Z,79.09
2018-05-15T08:12:59.097Z,78.01
2018-05-15T08:15:28.316Z,80.08
2018-05-15T08:17:57.493Z,78.46
2018-05-15T08:20:25.968Z,76.40
2018-05-15T08:22:54.401Z,76.36
2018-05-15T08:25:22.845Z,76.60
2018-05-15T08:27:51.255Z,78.63
2018-05-15T08:30:20.464Z,78.36
2018-05-15T08:32:49.010Z,73.56
2018-05-15T08:35:17.463Z,76.78
2018-05-15T08:37:45.896Z,73.04
2018-05-15T08:40:15.112Z,73.67
2018-05-15T08:42:44.383Z,75.44
2018-05-15T08:45:12.842Z,74.31
2018-05-15T08:47:41.251Z,73.28
2018-05-15T08:50:09.776Z,74.13
2018-05-15T08:52:38.959Z,73.00
2018-05-15T08:55:08.175Z,72.79
2018-05-15T08:57:37.373Z,71.99
2018-05-15T09:00:06.618Z,72.91
2018-05-15T09:02:35.047Z,74.87
2018-05-15T09:05:03.500Z,72.61
2018-05-15T09:07:32.091Z,75.14
2018-05-15T09:10:00.548Z,74.94
2018-05-15T09:12:28.995Z,74.17
2018-05-15T09:14:58.214Z,73.11
2018-05-15T09:17:26.679Z,73.58
2018-05-15T09:19:55.903Z,73.94
2018-05-15T09:22:24.536Z,72.17
2018-05-15T09:24:53.112Z,74.06
2018-05-15T09:27:21.604Z,73.42
2018-05-15T09:29:50.077Z,67.61
2018-05-15T09:32:18.486Z,69.84
2018-05-15T09:34:46.914Z,70.28
2018-05-15T09:37:15.384Z,72.37
2018-05-15T09:39:44.574Z,69.94
2018-05-15T09:42:13.797Z,70.41
2018-05-15T09:44:42.984Z,67.59
2018-05-15T09:47:11.443Z,68.68
2018-05-15T09:49:39.866Z,71.44
2018-05-15T09:52:09.115Z,71.77
2018-05-15T09:54:37.545Z,72.71
2018-05-15T09:57:06.764Z,71.16
2018-05-15T09:59:35.941Z,67.90
2018-05-15T10:02:05.166Z,64.69
2018-05-15T10:04:33.585Z,68.66
2018-05-15T10:07:02.018Z,65.62
2018-05-15T10:09:31.211Z,68.32
2018-05-15T10:12:00.298Z,66.17
2018-05-15T10:14:28.721Z,69.69
2018-05-15T10:16:57.165Z,66.23
2018-05-15T10:19:25.584Z,69.28
2018-05-15T10:21:54.035Z,68.88
2018-05-15T10:24:22.429Z,66.28
2018-05-15T10:26:50.888Z,72.67
2018-05-15T10:29:19.307Z,69.45
2018-05-15T10:31:48.506Z,65.13
2018-05-15T10:34:16.916Z,63.23
2018-05-15T10:36:45.358Z,62.01
2018-05-15T10:39:13.768Z,63.65
2018-05-15T10:41:42.969Z,64.63
2018-05-15T10:44:12.160Z,59.75
2018-05-15T10:46:41.363Z,60.77
2018-05-15T10:49:10.626Z,59.77
2018-05-15T10:51:39.062Z,55.31
2018-05-15T10:54:08.243Z,55.03
2018-05-15T10:56:36.754Z,57.02
2018-05-15T10:59:05.162Z,55.73
2018-05-15T11:01:33.614Z,57.30
2018-05-15T11:04:02.848Z,58.03
2018-05-15T11:06:31.283Z,60.51
2018-05-15T11:08:59.721Z,62.43
2018-05-15T11:11:28.252Z,58.98
2018-05-15T11:13:56.662Z,61.03
2018-05-15T11:16:25.872Z,57.80
2018-05-15T11:18:55.043Z,58.47
2018-05-15T11:24:49.303Z,58.94
2018-05-15T11:27:17.754Z,55.06
2018-05-15T11:29:46.188Z,55.72
2018-05-15T11:32:15.431Z,54.83
2018-05-15T11:34:43.838Z,56.98
2018-05-15T11:37:12.258Z,52.28
2018-05-15T11:39:40.701Z,53.87
2018-05-15T11:42:09.126Z,53.78
2018-05-15T11:44:37.587Z,53.18
2018-05-15T11:47:06.005Z,51.86
2018-05-15T11:49:34.951Z,53.13
2018-05-15T11:52:03.803Z,57.85
2018-05-15T11:54:31.375Z,55.31
2018-05-15T11:57:00.611Z,55.05
2018-05-15T11:59:29.837Z,51.07
2018-05-15T12:01:58.268Z,53.01
2018-05-15T12:04:27.494Z,48.14
2018-05-15T12:06:55.938Z,53.12
2018-05-15T12:09:25.146Z,52.10
2018-05-15T12:11:54.318Z,55.05
2018-05-15T12:14:22.767Z,50.20
2018-05-15T12:16:51.941Z,52.00
2018-05-15T12:19:21.164Z,53.74
2018-05-15T12:21:49.588Z,54.36
2018-05-15T12:24:18.028Z,47.54
2018-05-15T12:26:46.447Z,49.26
2018-05-15T12:29:14.878Z,46.02
2018-05-15T12:31:44.060Z,45.50
2018-05-15T12:34:12.516Z,49.74
2018-05-15T12:36:40.928Z,51.42
2018-05-15T12:39:09.368Z,51.23
2018-05-15T12:41:37.917Z,52.58
2018-05-15T12:44:07.023Z,46.86
2018-05-15T12:46:36.219Z,44.97
2018-05-15T12:49:05.422Z,44.28
2018-05-15T12:51:34.588Z,43.11
2018-05-15T12:54:03.147Z,44.57
2018-05-15T12:56:31.521Z,46.35
2018-05-15T12:59:00.065Z,47.20
2018-05-15T13:01:29.288Z,47.10
2018-05-15T13:03:58.472Z,45.03
2018-05-15T13:06:26.932Z,45.72
2018-05-15T13:08:55.343Z,47.07
2018-05-15T13:11:23.788Z,47.15
2018-05-15T13:13:52.200Z,44.90
2018-05-15T13:16:20.630Z,49.96
2018-05-15T13:18:49.040Z,49.74
2018-05-15T13:21:17.487Z,45.52
2018-05-15T13:23:45.919Z,42.30
2018-05-15T13:26:14.352Z,41.57
2018-05-15T13:28:42.842Z,43.77
2018-05-15T13:31:11.354Z,46.90
2018-05-15T13:33:39.748Z,47.49
2018-05-15T13:36:08.186Z,44.31
2018-05-15T13:38:38.135Z,44.61
2018-05-15T13:41:06.610Z,45.09
2018-05-15T13:43:35.039Z,43.13
2018-05-15T13:46:03.521Z,44.97
2018-05-15T13:48:32.778Z,42.99
2018-05-15T13:51:01.393Z,40.34
2018-05-15T13:53:29.833Z,39.78
2018-05-15T13:55:59.036Z,40.95
2018-05-15T13:58:28.253Z,42.90
2018-05-15T14:00:56.662Z,43.57
2018-05-15T14:03:25.113Z,44.11
2018-05-15T14:05:54.211Z,43.72
2018-05-15T14:08:24.217Z,42.88
2018-05-15T14:10:53.512Z,42.04
2018-05-15T14:13:26.904Z,43.35
2018-05-15T14:15:56.527Z,41.09
2018-05-15T14:18:26.755Z,43.42
2018-05-15T14:20:57.057Z,43.90
2018-05-15T14:23:30.981Z,44.47
2018-05-15T14:26:02.245Z,43.80
2018-05-15T14:28:31.833Z,43.44
2018-05-15T14:31:02.154Z,44.78
2018-05-15T14:33:30.611Z,43.99
2018-05-15T14:35:59.023Z,43.85
2018-05-15T14:38:27.488Z,44.98
2018-05-15T14:40:55.888Z,44.79
2018-05-15T14:43:26.136Z,45.60
2018-05-15T14:45:55.325Z,45.63
2018-05-15T14:48:23.763Z,43.54
2018-05-15T14:54:13.608Z,42.66
2018-05-15T14:56:43.113Z,42.54
2018-05-15T14:59:13.230Z,41.88
2018-05-15T15:01:41.635Z,42.51
2018-05-15T15:04:10.092Z,39.95
2018-05-15T15:06:38.526Z,41.51
2018-05-15T15:09:07.703Z,42.75
2018-05-15T15:11:36.901Z,40.06
2018-05-15T15:14:06.250Z,40.02
2018-05-15T15:16:34.685Z,40.15
2018-05-15T15:19:03.874Z,42.09
2018-05-15T15:21:32.319Z,38.89
2018-05-15T15:24:00.738Z,39.29
2018-05-15T15:26:29.206Z,41.42
2018-05-15T15:28:57.661Z,41.84
2018-05-15T15:31:26.107Z,38.55
2018-05-15T15:33:55.330Z,40.37
2018-05-15T15:36:23.801Z,39.67
2018-05-15T15:38:52.995Z,41.98
2018-05-15T15:41:22.202Z,42.44
2018-05-15T15:43:51.388Z,43.58
2018-05-15T15:46:20.665Z,43.93
2018-05-15T15:48:49.093Z,42.60
2018-05-15T15:51:18.305Z,47.25
2018-05-15T15:53:46.735Z,45.52
2018-05-15T15:56:15.178Z,45.41
2018-05-15T15:58:43.600Z,43.79
2018-05-15T16:01:12.068Z,45.61
2018-05-15T16:03:40.549Z,46.10
2018-05-15T16:06:09.002Z,45.44
2018-05-15T16:08:38.184Z,46.36
2018-05-15T16:11:06.624Z,46.89
2018-05-15T16:13:35.054Z,47.14
2018-05-15T16:16:03.529Z,46.08
2018-05-15T16:18:31.952Z,48.96
2018-05-15T16:21:00.418Z,48.43
2018-05-15T16:23:29.616Z,48.04
2018-05-15T16:25:58.064Z,48.42
2018-05-15T16:28:26.497Z,46.80
2018-05-15T16:30:55.803Z,48.19
2018-05-15T16:33:24.173Z,45.92
2018-05-15T16:35:53.853Z,46.37
2018-05-15T16:38:22.271Z,46.40
2018-05-15T16:40:51.496Z,46.86
2018-05-15T16:43:19.980Z,47.42
2018-05-15T16:45:48.487Z,49.22
2018-05-15T16:48:16.907Z,49.24
2018-05-15T16:50:45.385Z,48.85
2018-05-15T16:53:13.955Z,48.19
2018-05-15T16:55:42.364Z,49.07
2018-05-15T16:58:10.824Z,46.52
2018-05-15T17:00:39.289Z,46.16
2018-05-15T17:03:07.815Z,46.54
2018-05-15T17:05:36.222Z,47.50
2018-05-15T17:08:04.714Z,47.73
2018-05-15T17:10:33.117Z,47.51
2018-05-15T17:13:01.621Z,47.82
2018-05-15T17:15:30.146Z,48.04
2018-05-15T17:17:58.607Z,48.10
2018-05-15T17:20:28.085Z,49.25
2018-05-15T17:22:57.054Z,48.99
2018-05-15T17:25:26.252Z,48.08
2018-05-15T17:27:56.384Z,49.07
2018-05-15T17:30:26.480Z,50.54
2018-05-15T17:32:54.939Z,51.40
2018-05-15T17:35:23.410Z,53.63
2018-05-15T17:37:51.864Z,54.56
2018-05-15T17:40:21.108Z,56.56
2018-05-15T17:42:49.573Z,59.33
2018-05-15T17:45:18.436Z,59.85
2018-05-15T17:47:46.861Z,64.70
2018-05-15T17:50:16.046Z,66.19
2018-05-15T17:52:44.521Z,66.34
2018-05-15T17:55:13.047Z,69.06
2018-05-15T17:57:41.482Z,69.94
2018-05-15T18:00:10.727Z,70.75
2018-05-15T18:02:39.327Z,72.02
2018-05-15T18:05:07.836Z,71.79
2018-05-15T18:07:36.642Z,71.55
2018-05-15T18:10:06.052Z,70.25
2018-05-15T18:12:38.271Z,71.37
2018-05-15T18:15:06.798Z,70.00
2018-05-15T18:17:35.276Z,69.68
2018-05-15T18:20:03.761Z,70.53
2018-05-15T18:22:32.268Z,71.22
2018-05-15T18:25:01.491Z,71.84
2018-05-15T18:27:30.112Z,71.42
2018-05-15T18:29:59.304Z,70.83
2018-05-15T18:32:27.772Z,72.28
2018-05-15T18:34:56.212Z,72.16
2018-05-15T18:37:24.742Z,72.18
2018-05-15T18:39:53.210Z,74.13
2018-05-15T18:42:22.541Z,74.43
2018-05-15T18:44:51.011Z,73.40
2018-05-15T18:47:19.574Z,71.63
2018-05-15T18:49:48.004Z,70.74
2018-05-15T18:52:16.479Z,70.75
2018-05-15T18:54:44.892Z,71.25
2018-05-15T18:57:13.349Z,71.30
2018-05-15T18:59:41.760Z,70.88
2018-05-15T19:02:10.290Z,70.27
2018-05-15T19:04:38.732Z,69.16
2018-05-15T19:07:07.185Z,68.90
2018-05-15T19:09:35.606Z,68.62
2018-05-15T19:12:04.335Z,68.52
2018-05-15T19:14:33.532Z,68.58
2018-05-15T19:17:02.757Z,69.31
2018-05-15T19:19:31.352Z,69.22
2018-05-15T19:21:59.670Z,69.29
2018-05-15T19:24:28.109Z,69.22
2018-05-15T19:26:57.466Z,70.32
2018-05-15T19:29:25.833Z,71.20
2018-05-15T19:31:54.331Z,71.89
2018-05-15T19:34:26.350Z,72.87
2018-05-15T19:36:58.698Z,72.33
2018-05-15T19:39:32.661Z,71.63
2018-05-15T19:42:02.439Z,71.52
2018-05-15T19:44:30.868Z,71.55
2018-05-15T19:47:00.040Z,71.27
2018-05-15T19:49:28.556Z,71.40
2018-05-15T19:51:57.059Z,72.10
2018-05-15T19:54:25.501Z,72.48
2018-05-15T19:56:54.009Z,71.83
2018-05-15T19:59:23.323Z,72.13
2018-05-15T20:01:51.791Z,72.36
2018-05-15T20:04:20.261Z,72.35
2018-05-15T20:06:48.680Z,72.80
2018-05-15T20:09:17.123Z,73.36
2018-05-15T20:11:45.633Z,73.77
2018-05-15T20:14:14.094Z,73.77
2018-05-15T20:16:42.535Z,74.78
2018-05-15T20:19:11.004Z,74.29
2018-05-15T20:21:39.434Z,75.46
2018-05-15T20:24:11.562Z,75.07
2018-05-15T20:26:39.991Z,74.69
2018-05-15T20:29:09.303Z,74.94
2018-05-15T20:31:38.286Z,75.37
2018-05-15T20:34:07.491Z,76.38
2018-05-15T20:36:35.965Z,77.12
2018-05-15T20:39:04.413Z,77.32
2018-05-15T20:41:32.910Z,77.43
2018-05-15T20:44:01.350Z,77.50
2018-05-15T20:46:29.796Z,77.77
2018-05-15T20:48:58.216Z,77.35
2018-05-15T20:51:26.726Z,77.43
2018-05-15T20:53:55.179Z,77.17
2018-05-15T20:56:24.399Z,76.88
2018-05-15T20:58:52.829Z,76.90
2018-05-15T21:01:21.467Z,77.27
2018-05-15T21:03:49.909Z,77.67
2018-05-15T21:06:18.378Z,77.99
2018-05-15T21:08:46.811Z,78.43
2018-05-15T21:11:16.036Z,78.57
2018-05-15T21:13:44.470Z,78.68
2018-05-15T21:16:12.937Z,78.61
2018-05-15T21:18:41.372Z,78.80
2018-05-15T21:21:09.824Z,79.02
2018-05-15T21:23:38.247Z,79.73
2018-05-15T21:26:06.679Z,79.67
2018-05-15T21:28:35.140Z,78.85
2018-05-15T21:31:03.678Z,78.73
2018-05-15T21:33:32.895Z,78.99
2018-05-15T21:36:01.299Z,79.31
2018-05-15T21:38:29.767Z,79.33
2018-05-15T21:40:58.201Z,78.99
2018-05-15T21:43:26.659Z,78.77
2018-05-15T21:45:55.077Z,78.96
2018-05-15T21:48:23.531Z,79.26
2018-05-15T21:50:51.950Z,78.99
2018-05-15T21:53:20.404Z,79.13
2018-05-15T21:55:48.823Z,78.81
2018-05-15T21:58:17.251Z,78.81
2018-05-15T22:00:45.702Z,78.75
2018-05-15T22:03:14.888Z,78.91
2018-05-15T22:05:43.432Z,78.59
2018-05-15T22:08:12.008Z,78.48
2018-05-15T22:10:40.463Z,78.55
2018-05-15T22:13:27.217Z,78.57
2018-05-15T22:16:13.296Z,78.60
2018-05-15T22:18:59.572Z,78.74
2018-05-15T22:21:45.889Z,78.78
2018-05-15T22:24:29.196Z,79.36
2018-05-15T22:26:57.669Z,79.99
2018-05-15T22:29:26.086Z,80.31
2018-05-15T22:31:54.534Z,80.22
2018-05-15T22:34:23.733Z,80.29
2018-05-15T22:36:52.188Z,80.78
2018-05-15T22:39:20.626Z,80.68
2018-05-15T22:41:49.076Z,81.01
2018-05-15T22:44:18.283Z,81.02
2018-05-15T22:46:47.500Z,80.55
2018-05-15T22:49:15.929Z,80.45
2018-05-15T22:51:44.397Z,80.38
2018-05-15T22:54:12.840Z,79.00
2018-05-15T22:56:42.024Z,79.78
2018-05-15T22:59:10.481Z,79.88
2018-05-15T23:01:38.908Z,79.77
2018-05-15T23:04:08.113Z,80.32
2018-05-15T23:06:37.305Z,80.26
2018-05-15T23:09:06.524Z,79.96
2018-05-15T23:11:34.945Z,80.28
2018-05-15T23:14:03.387Z,80.43
2018-05-15T23:16:32.681Z,81.32
2018-05-15T23:19:01.904Z,81.00
2018-05-15T23:21:30.324Z,81.17
2018-05-15T23:23:58.775Z,80.73
2018-05-15T23:26:27.250Z,80.62
2018-05-15T23:28:55.711Z,80.54
2018-05-15T23:31:24.213Z,80.23
2018-05-15T23:33:52.680Z,81.07
2018-05-15T23:36:21.100Z,81.29
2018-05-15T23:38:49.610Z,81.73
2018-05-15T23:41:18.065Z,82.26
2018-05-15T23:43:46.520Z,82.66
2018-05-15T23:46:15.053Z,83.06
2018-05-15T23:48:43.483Z,83.08
2018-05-15T23:51:12.008Z,83.42
2018-05-15T23:53:43.074Z,82.93
2018-05-15T23:56:11.542Z,82.96
2018-05-15T23:58:39.952Z,82.04
